sensor_id;sensor_type;location;lat;lon;timestamp;pressure;altitude;pressure_sealevel;temperature;humidity
4570;BME280;2297;51.442;6.996;2023-04-19T00:00:12;101349.88;;;13.27;43.81
4570;BME280;2297;51.442;6.996;2023-04-19T00:02:39;101346.34;;;13.28;43.79
4570;BME280;2297;51.442;6.996;2023-04-19T00:05:06;101344.66;;;13.21;43.93
4570;BME280;2297;51.442;6.996;2023-04-19T00:07:33;101350.00;;;13.18;44.30
4570;BME280;2297;51.442;6.996;2023-04-19T00:10:00;101345.53;;;13.21;44.18
4570;BME280;2297;51.442;6.996;2023-04-19T00:12:29;101349.16;;;13.16;44.52
4570;BME280;2297;51.442;6.996;2023-04-19T00:14:55;101342.06;;;13.16;44.46
4570;BME280;2297;51.442;6.996;2023-04-19T00:17:22;101336.72;;;13.19;44.46
4570;BME280;2297;51.442;6.996;2023-04-19T00:19:48;101348.19;;;13.21;44.63
4570;BME280;2297;51.442;6.996;2023-04-19T00:22:15;101340.31;;;13.15;44.87
4570;BME280;2297;51.442;6.996;2023-04-19T00:24:42;101339.44;;;13.14;44.90
4570;BME280;2297;51.442;6.996;2023-04-19T00:27:09;101340.34;;;13.12;45.28
4570;BME280;2297;51.442;6.996;2023-04-19T00:29:37;101342.91;;;13.20;45.21
4570;BME280;2297;51.442;6.996;2023-04-19T00:32:03;101340.22;;;13.21;45.69
4570;BME280;2297;51.442;6.996;2023-04-19T00:34:31;101342.94;;;13.18;45.79
4570;BME280;2297;51.442;6.996;2023-04-19T00:36:58;101340.41;;;13.09;46.10
4570;BME280;2297;51.442;6.996;2023-04-19T00:39:24;101341.09;;;13.20;46.02
4570;BME280;2297;51.442;6.996;2023-04-19T00:41:51;101338.59;;;13.12;46.50
4570;BME280;2297;51.442;6.996;2023-04-19T00:44:18;101331.44;;;13.18;46.31
4570;BME280;2297;51.442;6.996;2023-04-19T00:46:46;101334.41;;;12.96;46.93
4570;BME280;2297;51.442;6.996;2023-04-19T00:49:13;101331.56;;;13.08;47.11
4570;BME280;2297;51.442;6.996;2023-04-19T00:51:40;101336.13;;;13.00;47.27
4570;BME280;2297;51.442;6.996;2023-04-19T00:54:07;101337.94;;;12.98;47.27
4570;BME280;2297;51.442;6.996;2023-04-19T00:56:34;101333.50;;;12.98;47.50
4570;BME280;2297;51.442;6.996;2023-04-19T00:59:01;101327.34;;;12.95;47.52
4570;BME280;2297;51.442;6.996;2023-04-19T01:01:28;101330.88;;;12.97;47.29
4570;BME280;2297;51.442;6.996;2023-04-19T01:03:56;101329.06;;;12.99;47.54
4570;BME280;2297;51.442;6.996;2023-04-19T01:06:23;101327.38;;;12.93;47.85
4570;BME280;2297;51.442;6.996;2023-04-19T01:08:52;101334.47;;;12.93;47.63
4570;BME280;2297;51.442;6.996;2023-04-19T01:11:18;101321.09;;;13.01;47.53
4570;BME280;2297;51.442;6.996;2023-04-19T01:13:45;101323.66;;;13.05;47.42
4570;BME280;2297;51.442;6.996;2023-04-19T01:16:12;101317.50;;;13.05;47.23
4570;BME280;2297;51.442;6.996;2023-04-19T01:18:38;101319.16;;;13.10;47.23
4570;BME280;2297;51.442;6.996;2023-04-19T01:21:07;101320.84;;;13.16;47.32
4570;BME280;2297;51.442;6.996;2023-04-19T01:23:35;101312.09;;;13.12;47.13
4570;BME280;2297;51.442;6.996;2023-04-19T01:26:03;101310.34;;;13.08;47.37
4570;BME280;2297;51.442;6.996;2023-04-19T01:28:30;101310.38;;;13.07;47.29
4570;BME280;2297;51.442;6.996;2023-04-19T01:30:57;101309.47;;;13.09;47.10
4570;BME280;2297;51.442;6.996;2023-04-19T01:33:24;101312.97;;;13.11;47.18
4570;BME280;2297;51.442;6.996;2023-04-19T01:35:51;101298.84;;;13.09;47.30
4570;BME280;2297;51.442;6.996;2023-04-19T01:38:17;101313.00;;;13.10;47.36
4570;BME280;2297;51.442;6.996;2023-04-19T01:40:45;101304.13;;;13.12;47.57
4570;BME280;2297;51.442;6.996;2023-04-19T01:43:14;101312.91;;;13.14;47.58
4570;BME280;2297;51.442;6.996;2023-04-19T01:45:41;101300.47;;;13.20;47.47
4570;BME280;2297;51.442;6.996;2023-04-19T01:48:08;101304.91;;;13.19;47.08
4570;BME280;2297;51.442;6.996;2023-04-19T01:50:34;101304.91;;;13.18;47.29
4570;BME280;2297;51.442;6.996;2023-04-19T01:53:01;101307.50;;;13.24;46.94
4570;BME280;2297;51.442;6.996;2023-04-19T01:55:28;101307.56;;;13.18;46.76
4570;BME280;2297;51.442;6.996;2023-04-19T01:57:56;101298.75;;;13.16;46.94
4570;BME280;2297;51.442;6.996;2023-04-19T02:00:23;101297.84;;;13.18;46.71
4570;BME280;2297;51.442;6.996;2023-04-19T02:02:49;101305.00;;;13.13;46.66
4570;BME280;2297;51.442;6.996;2023-04-19T02:05:16;101295.31;;;13.10;46.57
4570;BME280;2297;51.442;6.996;2023-04-19T02:07:43;101288.22;;;13.11;46.36
4570;BME280;2297;51.442;6.996;2023-04-19T02:10:10;101288.34;;;13.03;46.54
4570;BME280;2297;51.442;6.996;2023-04-19T02:12:37;101293.59;;;13.06;46.57
4570;BME280;2297;51.442;6.996;2023-04-19T02:15:06;101290.06;;;13.07;46.10
4570;BME280;2297;51.442;6.996;2023-04-19T02:17:33;101285.69;;;13.05;46.50
4570;BME280;2297;51.442;6.996;2023-04-19T02:20:00;101291.84;;;13.05;46.38
4570;BME280;2297;51.442;6.996;2023-04-19T02:22:26;101298.91;;;13.06;46.17
4570;BME280;2297;51.442;6.996;2023-04-19T02:24:53;101295.22;;;13.17;45.97
4570;BME280;2297;51.442;6.996;2023-04-19T02:27:20;101295.34;;;13.09;46.01
4570;BME280;2297;51.442;6.996;2023-04-19T02:29:46;101299.69;;;13.13;46.09
4570;BME280;2297;51.442;6.996;2023-04-19T02:32:14;101304.13;;;13.11;46.04
4570;BME280;2297;51.442;6.996;2023-04-19T02:34:41;101302.50;;;13.02;46.09
4570;BME280;2297;51.442;6.996;2023-04-19T02:37:07;101298.09;;;13.01;46.19
4570;BME280;2297;51.442;6.996;2023-04-19T02:39:34;101298.06;;;13.03;45.76
4570;BME280;2297;51.442;6.996;2023-04-19T02:42:01;101305.13;;;13.04;45.77
4570;BME280;2297;51.442;6.996;2023-04-19T02:44:27;101302.41;;;13.08;45.45
4570;BME280;2297;51.442;6.996;2023-04-19T02:46:54;101301.63;;;13.03;45.79
4570;BME280;2297;51.442;6.996;2023-04-19T02:49:23;101300.75;;;13.01;45.87
4570;BME280;2297;51.442;6.996;2023-04-19T02:51:50;101302.56;;;12.97;45.61
4570;BME280;2297;51.442;6.996;2023-04-19T02:54:17;101302.59;;;12.96;45.71
4570;BME280;2297;51.442;6.996;2023-04-19T02:56:44;101300.00;;;12.93;45.41
4570;BME280;2297;51.442;6.996;2023-04-19T02:59:11;101300.88;;;12.93;45.65
4570;BME280;2297;51.442;6.996;2023-04-19T03:01:37;101292.00;;;12.96;45.19
4570;BME280;2297;51.442;6.996;2023-04-19T03:04:04;101292.03;;;12.93;45.07
4570;BME280;2297;51.442;6.996;2023-04-19T03:06:32;101286.75;;;12.93;45.04
4570;BME280;2297;51.442;6.996;2023-04-19T03:08:59;101278.72;;;12.96;44.73
4570;BME280;2297;51.442;6.996;2023-04-19T03:11:25;101284.94;;;12.95;44.43
4570;BME280;2297;51.442;6.996;2023-04-19T03:13:52;101291.19;;;12.91;44.19
4570;BME280;2297;51.442;6.996;2023-04-19T03:16:19;101287.66;;;12.90;43.82
4570;BME280;2297;51.442;6.996;2023-04-19T03:18:45;101290.34;;;12.89;43.57
4570;BME280;2297;51.442;6.996;2023-04-19T03:21:12;101290.28;;;12.92;43.51
4570;BME280;2297;51.442;6.996;2023-04-19T03:23:40;101286.78;;;12.90;43.43
4570;BME280;2297;51.442;6.996;2023-04-19T03:26:06;101285.78;;;12.97;43.57
4570;BME280;2297;51.442;6.996;2023-04-19T03:28:33;101285.72;;;13.03;43.72
4570;BME280;2297;51.442;6.996;2023-04-19T03:31:00;101287.50;;;13.01;43.42
4570;BME280;2297;51.442;6.996;2023-04-19T03:33:27;101284.09;;;12.93;44.09
4570;BME280;2297;51.442;6.996;2023-04-19T03:35:53;101290.22;;;12.98;44.08
4570;BME280;2297;51.442;6.996;2023-04-19T03:38:20;101283.09;;;13.00;44.09
4570;BME280;2297;51.442;6.996;2023-04-19T03:40:48;101276.00;;;13.02;43.64
4570;BME280;2297;51.442;6.996;2023-04-19T03:43:14;101281.31;;;13.02;43.56
4570;BME280;2297;51.442;6.996;2023-04-19T03:45:41;101274.25;;;13.01;43.89
4570;BME280;2297;51.442;6.996;2023-04-19T03:48:08;101270.63;;;13.05;43.55
4570;BME280;2297;51.442;6.996;2023-04-19T03:50:34;101272.56;;;12.95;43.63
4570;BME280;2297;51.442;6.996;2023-04-19T03:53:02;101275.16;;;12.98;43.24
4570;BME280;2297;51.442;6.996;2023-04-19T03:55:29;101274.44;;;12.89;43.55
4570;BME280;2297;51.442;6.996;2023-04-19T03:57:57;101276.22;;;12.87;43.12
4570;BME280;2297;51.442;6.996;2023-04-19T04:00:24;101273.66;;;12.82;42.61
4570;BME280;2297;51.442;6.996;2023-04-19T04:02:51;101265.69;;;12.84;42.68
4570;BME280;2297;51.442;6.996;2023-04-19T04:05:18;101271.97;;;12.75;42.72
4570;BME280;2297;51.442;6.996;2023-04-19T04:07:45;101273.75;;;12.74;42.86
4570;BME280;2297;51.442;6.996;2023-04-19T04:10:11;101276.41;;;12.74;42.75
4570;BME280;2297;51.442;6.996;2023-04-19T04:12:38;101274.56;;;12.79;42.06
4570;BME280;2297;51.442;6.996;2023-04-19T04:15:07;101281.75;;;12.71;41.72
4570;BME280;2297;51.442;6.996;2023-04-19T04:17:34;101276.50;;;12.68;41.64
4570;BME280;2297;51.442;6.996;2023-04-19T04:20:01;101279.19;;;12.65;41.28
4570;BME280;2297;51.442;6.996;2023-04-19T04:22:30;101274.88;;;12.56;41.15
4570;BME280;2297;51.442;6.996;2023-04-19T04:24:57;101282.06;;;12.50;40.25
4570;BME280;2297;51.442;6.996;2023-04-19T04:27:25;101292.72;;;12.43;40.17
4570;BME280;2297;51.442;6.996;2023-04-19T04:29:52;101284.84;;;12.39;40.08
4570;BME280;2297;51.442;6.996;2023-04-19T04:32:20;101281.34;;;12.38;39.81
4570;BME280;2297;51.442;6.996;2023-04-19T04:34:47;101287.53;;;12.34;39.95
4570;BME280;2297;51.442;6.996;2023-04-19T04:37:13;101295.50;;;12.33;40.12
4570;BME280;2297;51.442;6.996;2023-04-19T04:39:40;101285.81;;;12.33;39.97
4570;BME280;2297;51.442;6.996;2023-04-19T04:42:07;101292.94;;;12.25;40.03
4570;BME280;2297;51.442;6.996;2023-04-19T04:44:34;101298.22;;;12.28;39.47
4570;BME280;2297;51.442;6.996;2023-04-19T04:47:01;101294.75;;;12.24;39.46
4570;BME280;2297;51.442;6.996;2023-04-19T04:49:29;101294.78;;;12.17;39.40
4570;BME280;2297;51.442;6.996;2023-04-19T04:51:56;101287.75;;;12.14;39.35
4570;BME280;2297;51.442;6.996;2023-04-19T04:54:23;101289.53;;;12.13;39.46
4570;BME280;2297;51.442;6.996;2023-04-19T04:56:49;101293.09;;;12.11;39.01
4570;BME280;2297;51.442;6.996;2023-04-19T04:59:16;101292.22;;;12.09;38.99
4570;BME280;2297;51.442;6.996;2023-04-19T05:01:43;101287.88;;;12.03;39.02
4570;BME280;2297;51.442;6.996;2023-04-19T05:04:09;101291.44;;;12.01;39.13
4570;BME280;2297;51.442;6.996;2023-04-19T05:06:37;101295.00;;;12.01;39.08
4570;BME280;2297;51.442;6.996;2023-04-19T05:09:05;101294.09;;;12.04;38.87
4570;BME280;2297;51.442;6.996;2023-04-19T05:11:31;101291.47;;;11.99;39.10
4570;BME280;2297;51.442;6.996;2023-04-19T05:13:58;101290.50;;;12.06;38.84
4570;BME280;2297;51.442;6.996;2023-04-19T05:16:25;101288.75;;;12.07;39.04
4570;BME280;2297;51.442;6.996;2023-04-19T05:18:52;101289.59;;;12.10;38.86
4570;BME280;2297;51.442;6.996;2023-04-19T05:21:18;101288.63;;;12.16;38.76
4570;BME280;2297;51.442;6.996;2023-04-19T05:23:46;101294.78;;;12.17;39.04
4570;BME280;2297;51.442;6.996;2023-04-19T05:26:13;101287.84;;;12.06;39.36
4570;BME280;2297;51.442;6.996;2023-04-19T05:28:40;101298.41;;;12.09;39.60
4570;BME280;2297;51.442;6.996;2023-04-19T05:31:07;101294.84;;;12.13;39.79
4570;BME280;2297;51.442;6.996;2023-04-19T05:33:34;101296.66;;;12.08;39.83
4570;BME280;2297;51.442;6.996;2023-04-19T05:36:01;101291.47;;;11.99;39.92
4570;BME280;2297;51.442;6.996;2023-04-19T05:38:28;101297.75;;;11.92;40.09
4570;BME280;2297;51.442;6.996;2023-04-19T05:40:56;101293.28;;;11.94;40.48
4570;BME280;2297;51.442;6.996;2023-04-19T05:43:23;101295.09;;;11.92;40.37
4570;BME280;2297;51.442;6.996;2023-04-19T05:45:49;101291.63;;;11.87;40.53
4570;BME280;2297;51.442;6.996;2023-04-19T05:48:16;101293.44;;;11.81;40.50
4570;BME280;2297;51.442;6.996;2023-04-19T05:50:42;101288.25;;;11.69;40.91
4570;BME280;2297;51.442;6.996;2023-04-19T05:53:09;101284.69;;;11.73;40.60
4570;BME280;2297;51.442;6.996;2023-04-19T05:55:36;101289.03;;;11.79;40.32
4570;BME280;2297;51.442;6.996;2023-04-19T05:58:04;101284.66;;;11.76;39.67
4570;BME280;2297;51.442;6.996;2023-04-19T06:00:31;101279.47;;;11.67;39.27
4570;BME280;2297;51.442;6.996;2023-04-19T06:02:57;101287.44;;;11.64;38.90
4570;BME280;2297;51.442;6.996;2023-04-19T06:05:24;101291.06;;;11.51;38.34
4570;BME280;2297;51.442;6.996;2023-04-19T06:07:51;101292.03;;;11.43;38.17
4570;BME280;2297;51.442;6.996;2023-04-19T06:10:20;101285.78;;;11.52;37.91
4570;BME280;2297;51.442;6.996;2023-04-19T06:12:47;101286.50;;;11.68;36.96
4570;BME280;2297;51.442;6.996;2023-04-19T06:15:15;101281.13;;;11.74;36.83
4570;BME280;2297;51.442;6.996;2023-04-19T06:17:41;101288.13;;;11.81;36.57
4570;BME280;2297;51.442;6.996;2023-04-19T06:20:09;101289.91;;;11.83;35.39
4570;BME280;2297;51.442;6.996;2023-04-19T06:22:41;101289.81;;;11.89;35.09
4570;BME280;2297;51.442;6.996;2023-04-19T06:25:08;101286.28;;;11.90;34.68
4570;BME280;2297;51.442;6.996;2023-04-19T06:27:34;101279.16;;;11.95;33.75
4570;BME280;2297;51.442;6.996;2023-04-19T06:30:01;101295.09;;;11.92;33.69
4570;BME280;2297;51.442;6.996;2023-04-19T06:32:29;101291.50;;;11.96;34.19
4570;BME280;2297;51.442;6.996;2023-04-19T06:34:56;101291.47;;;11.99;33.06
4570;BME280;2297;51.442;6.996;2023-04-19T06:37:22;101293.13;;;12.09;32.69
4570;BME280;2297;51.442;6.996;2023-04-19T06:39:49;101282.53;;;12.06;33.01
4570;BME280;2297;51.442;6.996;2023-04-19T06:42:16;101292.16;;;12.15;32.77
4570;BME280;2297;51.442;6.996;2023-04-19T06:44:44;101291.41;;;12.05;32.69
4570;BME280;2297;51.442;6.996;2023-04-19T06:47:11;101273.72;;;12.07;32.21
4570;BME280;2297;51.442;6.996;2023-04-19T06:49:39;101279.81;;;12.14;32.37
4570;BME280;2297;51.442;6.996;2023-04-19T06:52:05;101282.50;;;12.12;32.04
4570;BME280;2297;51.442;6.996;2023-04-19T06:54:32;101280.72;;;12.11;32.06
4570;BME280;2297;51.442;6.996;2023-04-19T06:56:59;101281.66;;;12.07;32.27
4570;BME280;2297;51.442;6.996;2023-04-19T06:59:26;101277.19;;;12.12;32.47
4570;BME280;2297;51.442;6.996;2023-04-19T07:01:53;101282.56;;;12.08;32.15
4570;BME280;2297;51.442;6.996;2023-04-19T07:04:21;101274.47;;;12.19;31.88
4570;BME280;2297;51.442;6.996;2023-04-19T07:06:49;101278.16;;;12.05;32.03
4570;BME280;2297;51.442;6.996;2023-04-19T07:09:16;101286.06;;;12.08;32.35
4570;BME280;2297;51.442;6.996;2023-04-19T07:11:42;101278.09;;;12.10;32.53
4570;BME280;2297;51.442;6.996;2023-04-19T07:14:09;101282.41;;;12.19;32.01
4570;BME280;2297;51.442;6.996;2023-04-19T07:16:36;101275.53;;;12.05;31.98
4570;BME280;2297;51.442;6.996;2023-04-19T07:19:02;101276.41;;;12.04;32.38
4570;BME280;2297;51.442;6.996;2023-04-19T07:21:29;101276.41;;;12.04;32.13
4570;BME280;2297;51.442;6.996;2023-04-19T07:23:59;101264.84;;;12.11;31.97
4570;BME280;2297;51.442;6.996;2023-04-19T07:26:25;101270.13;;;12.14;31.72
4570;BME280;2297;51.442;6.996;2023-04-19T07:28:52;101270.97;;;12.17;31.78
4570;BME280;2297;51.442;6.996;2023-04-19T07:31:18;101263.84;;;12.23;31.79
4570;BME280;2297;51.442;6.996;2023-04-19T07:33:45;101276.38;;;12.06;31.68
4570;BME280;2297;51.442;6.996;2023-04-19T07:36:12;101272.81;;;12.10;31.25
4570;BME280;2297;51.442;6.996;2023-04-19T07:38:38;101266.53;;;12.19;31.68
4570;BME280;2297;51.442;6.996;2023-04-19T07:41:07;101265.53;;;12.30;31.33
4570;BME280;2297;51.442;6.996;2023-04-19T07:43:34;101262.84;;;12.34;31.00
4570;BME280;2297;51.442;6.996;2023-04-19T07:46:00;101261.22;;;12.22;31.60
4570;BME280;2297;51.442;6.996;2023-04-19T07:48:27;101268.34;;;12.15;30.81
4570;BME280;2297;51.442;6.996;2023-04-19T07:50:54;101259.47;;;12.21;30.48
4570;BME280;2297;51.442;6.996;2023-04-19T07:53:21;101273.59;;;12.17;30.36
4570;BME280;2297;51.442;6.996;2023-04-19T07:55:47;101255.25;;;12.03;30.95
4570;BME280;2297;51.442;6.996;2023-04-19T07:58:15;101255.97;;;12.15;30.58
4570;BME280;2297;51.442;6.996;2023-04-19T08:00:42;101255.88;;;12.25;30.88
4570;BME280;2297;51.442;6.996;2023-04-19T08:03:09;101259.34;;;12.30;30.53
4570;BME280;2297;51.442;6.996;2023-04-19T08:05:35;101260.97;;;12.40;29.45
4570;BME280;2297;51.442;6.996;2023-04-19T08:08:02;101254.09;;;12.27;29.43
4570;BME280;2297;51.442;6.996;2023-04-19T08:10:29;101260.41;;;12.13;30.09
4570;BME280;2297;51.442;6.996;2023-04-19T08:12:56;101256.75;;;12.27;30.02
4570;BME280;2297;51.442;6.996;2023-04-19T08:15:24;101266.41;;;12.31;29.68
4570;BME280;2297;51.442;6.996;2023-04-19T08:17:50;101263.72;;;12.33;29.48
4570;BME280;2297;51.442;6.996;2023-04-19T08:20:17;101269.00;;;12.34;29.74
4570;BME280;2297;51.442;6.996;2023-04-19T08:22:44;101267.97;;;12.44;30.05
4570;BME280;2297;51.442;6.996;2023-04-19T08:25:10;101270.59;;;12.46;29.78
4570;BME280;2297;51.442;6.996;2023-04-19T08:27:37;101266.09;;;12.53;29.89
4570;BME280;2297;51.442;6.996;2023-04-19T08:30:06;101276.00;;;12.40;29.22
4570;BME280;2297;51.442;6.996;2023-04-19T08:32:36;101260.91;;;12.46;29.13
4570;BME280;2297;51.442;6.996;2023-04-19T08:35:03;101283.97;;;12.38;29.16
4570;BME280;2297;51.442;6.996;2023-04-19T08:37:30;101275.00;;;12.48;29.17
4570;BME280;2297;51.442;6.996;2023-04-19T08:39:57;101269.81;;;12.39;29.55
4570;BME280;2297;51.442;6.996;2023-04-19T08:42:24;101267.91;;;12.51;30.01
4570;BME280;2297;51.442;6.996;2023-04-19T08:44:51;101271.44;;;12.51;29.74
4570;BME280;2297;51.442;6.996;2023-04-19T08:47:21;101272.94;;;12.69;29.88
4570;BME280;2297;51.442;6.996;2023-04-19T08:49:50;101277.38;;;12.67;29.66
4570;BME280;2297;51.442;6.996;2023-04-19T08:52:17;101268.50;;;12.71;29.15
4570;BME280;2297;51.442;6.996;2023-04-19T08:54:45;101276.50;;;12.68;29.51
4570;BME280;2297;51.442;6.996;2023-04-19T08:57:12;101270.19;;;12.77;29.30
4570;BME280;2297;51.442;6.996;2023-04-19T08:59:38;101269.19;;;12.84;28.75
4570;BME280;2297;51.442;6.996;2023-04-19T09:02:06;101271.09;;;12.76;28.73
4570;BME280;2297;51.442;6.996;2023-04-19T09:04:32;101268.50;;;12.71;28.77
4570;BME280;2297;51.442;6.996;2023-04-19T09:07:00;101270.09;;;12.85;28.61
4570;BME280;2297;51.442;6.996;2023-04-19T09:09:28;101264.50;;;13.02;28.43
4570;BME280;2297;51.442;6.996;2023-04-19T09:11:56;101263.56;;;13.04;28.62
4570;BME280;2297;51.442;6.996;2023-04-19T09:14:25;101259.06;;;13.09;28.88
4570;BME280;2297;51.442;6.996;2023-04-19T09:16:51;101260.88;;;13.07;28.42
4570;BME280;2297;51.442;6.996;2023-04-19T09:19:18;101247.66;;;13.04;27.89
4570;BME280;2297;51.442;6.996;2023-04-19T09:21:45;101252.06;;;13.05;27.86
4570;BME280;2297;51.442;6.996;2023-04-19T09:24:17;101254.72;;;13.05;27.64
4570;BME280;2297;51.442;6.996;2023-04-19T09:26:53;101238.88;;;13.02;26.82
4570;BME280;2297;51.442;6.996;2023-04-19T09:29:22;101250.72;;;12.79;27.44
4570;BME280;2297;51.442;6.996;2023-04-19T09:31:56;101247.88;;;12.92;27.22
4570;BME280;2297;51.442;6.996;2023-04-19T09:34:24;101247.91;;;12.90;26.99
4570;BME280;2297;51.442;6.996;2023-04-19T09:36:53;101252.16;;;12.99;26.20
4570;BME280;2297;51.442;6.996;2023-04-19T09:39:31;101251.44;;;12.89;26.45
4570;BME280;2297;51.442;6.996;2023-04-19T09:42:00;101244.97;;;13.07;26.39
4570;BME280;2297;51.442;6.996;2023-04-19T09:44:27;101248.44;;;13.11;25.87
4570;BME280;2297;51.442;6.996;2023-04-19T09:46:54;101247.47;;;13.17;25.50
4570;BME280;2297;51.442;6.996;2023-04-19T09:50:02;101245.44;;;13.34;24.88
4570;BME280;2297;51.442;6.996;2023-04-19T09:52:29;101234.81;;;13.34;24.99
4570;BME280;2297;51.442;6.996;2023-04-19T09:55:00;101241.91;;;13.32;25.11
4570;BME280;2297;51.442;6.996;2023-04-19T09:57:27;101234.91;;;13.28;24.81
4570;BME280;2297;51.442;6.996;2023-04-19T09:59:54;101226.50;;;13.54;24.80
4570;BME280;2297;51.442;6.996;2023-04-19T10:02:21;101237.94;;;13.58;24.72
4570;BME280;2297;51.442;6.996;2023-04-19T10:04:49;101230.81;;;13.60;24.59
4570;BME280;2297;51.442;6.996;2023-04-19T10:07:17;101234.22;;;13.68;24.55
4570;BME280;2297;51.442;6.996;2023-04-19T10:09:44;101232.56;;;13.61;24.08
4570;BME280;2297;51.442;6.996;2023-04-19T10:12:14;101229.59;;;13.78;24.46
4570;BME280;2297;51.442;6.996;2023-04-19T10:14:41;101230.16;;;13.94;24.49
4570;BME280;2297;51.442;6.996;2023-04-19T10:17:08;101223.88;;;13.98;24.39
4570;BME280;2297;51.442;6.996;2023-04-19T10:19:36;101224.84;;;13.94;24.46
4570;BME280;2297;51.442;6.996;2023-04-19T10:22:03;101222.66;;;14.13;24.56
4570;BME280;2297;51.442;6.996;2023-04-19T10:24:32;101215.59;;;14.13;24.72
4570;BME280;2297;51.442;6.996;2023-04-19T10:27:07;101211.84;;;14.24;25.22
4570;BME280;2297;51.442;6.996;2023-04-19T10:29:56;101209.00;;;14.32;25.30
4570;BME280;2297;51.442;6.996;2023-04-19T10:32:23;101211.84;;;14.24;25.44
4570;BME280;2297;51.442;6.996;2023-04-19T10:34:52;101214.28;;;14.33;25.84
4570;BME280;2297;51.442;6.996;2023-04-19T10:37:21;101212.38;;;14.40;25.53
4570;BME280;2297;51.442;6.996;2023-04-19T10:39:49;101211.84;;;14.24;25.59
4570;BME280;2297;51.442;6.996;2023-04-19T10:42:16;101210.16;;;14.20;26.24
4570;BME280;2297;51.442;6.996;2023-04-19T10:47:44;101200.66;;;14.49;25.70
4570;BME280;2297;51.442;6.996;2023-04-19T10:50:11;101205.47;;;14.70;25.57
4570;BME280;2297;51.442;6.996;2023-04-19T10:52:38;101190.44;;;14.69;24.73
4570;BME280;2297;51.442;6.996;2023-04-19T10:55:05;101181.34;;;14.78;24.39
4570;BME280;2297;51.442;6.996;2023-04-19T10:58:02;101168.63;;;14.55;24.71
4570;BME280;2297;51.442;6.996;2023-04-19T11:00:29;101180.72;;;14.68;24.44
4570;BME280;2297;51.442;6.996;2023-04-19T11:02:59;101185.09;;;14.71;23.87
4570;BME280;2297;51.442;6.996;2023-04-19T11:06:15;101172.91;;;14.96;23.25
4570;BME280;2297;51.442;6.996;2023-04-19T11:08:43;101169.91;;;15.10;23.31
4570;BME280;2297;51.442;6.996;2023-04-19T11:11:12;101169.59;;;15.23;23.13
4570;BME280;2297;51.442;6.996;2023-04-19T11:13:40;101159.34;;;15.40;23.38
4570;BME280;2297;51.442;6.996;2023-04-19T11:16:08;101179.94;;;15.34;23.10
4570;BME280;2297;51.442;6.996;2023-04-19T11:18:34;101168.44;;;15.33;22.64
4570;BME280;2297;51.442;6.996;2023-04-19T11:21:01;101173.91;;;15.27;22.96
4570;BME280;2297;51.442;6.996;2023-04-19T11:23:29;101177.94;;;15.43;22.95
4570;BME280;2297;51.442;6.996;2023-04-19T11:25:57;101155.91;;;15.68;23.06
4570;BME280;2297;51.442;6.996;2023-04-19T11:28:24;101161.50;;;15.59;23.10
4570;BME280;2297;51.442;6.996;2023-04-19T11:30:51;101153.19;;;15.71;23.74
4570;BME280;2297;51.442;6.996;2023-04-19T11:33:18;101156.72;;;15.72;24.41
4570;BME280;2297;51.442;6.996;2023-04-19T11:35:49;101139.03;;;15.69;23.79
4570;BME280;2297;51.442;6.996;2023-04-19T11:38:15;101140.41;;;15.83;24.02
4570;BME280;2297;51.442;6.996;2023-04-19T11:40:43;101145.38;;;15.95;23.33
4570;BME280;2297;51.442;6.996;2023-04-19T11:43:10;101139.81;;;16.04;23.31
4570;BME280;2297;51.442;6.996;2023-04-19T11:45:37;101144.19;;;16.05;22.81
4570;BME280;2297;51.442;6.996;2023-04-19T11:48:04;101119.66;;;15.94;22.31
4570;BME280;2297;51.442;6.996;2023-04-19T11:50:32;101129.59;;;15.89;22.69
4570;BME280;2297;51.442;6.996;2023-04-19T11:53:09;101130.44;;;15.89;22.58
4570;BME280;2297;51.442;6.996;2023-04-19T11:55:36;101117.56;;;16.05;22.38
4570;BME280;2297;51.442;6.996;2023-04-19T11:58:05;101121.88;;;16.09;21.99
4570;BME280;2297;51.442;6.996;2023-04-19T12:00:34;101112.09;;;16.10;22.14
4570;BME280;2297;51.442;6.996;2023-04-19T12:03:01;101106.81;;;16.08;22.51
4570;BME280;2297;51.442;6.996;2023-04-19T12:05:28;101101.50;;;16.08;22.12
4570;BME280;2297;51.442;6.996;2023-04-19T12:07:59;101101.22;;;16.16;21.81
4570;BME280;2297;51.442;6.996;2023-04-19T12:10:26;101096.78;;;16.17;21.34
4570;BME280;2297;51.442;6.996;2023-04-19T12:12:53;101097.59;;;16.19;21.76
4570;BME280;2297;51.442;6.996;2023-04-19T12:15:21;101090.19;;;16.00;21.58
4570;BME280;2297;51.442;6.996;2023-04-19T12:17:58;101087.66;;;16.24;21.47
4570;BME280;2297;51.442;6.996;2023-04-19T12:20:30;101082.91;;;16.34;21.19
4570;BME280;2297;51.442;6.996;2023-04-19T12:22:57;101089.59;;;16.19;21.38
4570;BME280;2297;51.442;6.996;2023-04-19T12:25:27;101080.88;;;16.42;21.74
4570;BME280;2297;51.442;6.996;2023-04-19T12:27:54;101071.78;;;16.47;21.85
4570;BME280;2297;51.442;6.996;2023-04-19T12:30:22;101069.38;;;16.67;21.90
4570;BME280;2297;51.442;6.996;2023-04-19T12:32:49;101070.00;;;16.48;22.46
4570;BME280;2297;51.442;6.996;2023-04-19T12:35:19;101072.63;;;16.50;22.62
4570;BME280;2297;51.442;6.996;2023-04-19T20:19:33;100954.44;;;13.75;24.00
4570;BME280;2297;51.442;6.996;2023-04-19T20:22:00;100949.22;;;13.71;23.89
4570;BME280;2297;51.442;6.996;2023-04-19T20:24:26;100952.09;;;13.61;24.27
4570;BME280;2297;51.442;6.996;2023-04-19T20:26:53;100945.63;;;13.73;24.02
4570;BME280;2297;51.442;6.996;2023-04-19T20:29:21;100943.06;;;13.70;23.83
4570;BME280;2297;51.442;6.996;2023-04-19T20:31:48;100951.31;;;13.58;24.34
4570;BME280;2297;51.442;6.996;2023-04-19T20:34:14;100954.75;;;13.63;24.31
4570;BME280;2297;51.442;6.996;2023-04-19T20:36:43;100950.47;;;13.56;24.31
4570;BME280;2297;51.442;6.996;2023-04-19T20:39:10;100955.94;;;13.48;24.52
4570;BME280;2297;51.442;6.996;2023-04-19T20:41:38;100955.00;;;13.51;24.65
4570;BME280;2297;51.442;6.996;2023-04-19T20:44:04;100957.09;;;13.36;24.47
4570;BME280;2297;51.442;6.996;2023-04-19T20:46:33;100951.88;;;13.33;24.71
4570;BME280;2297;51.442;6.996;2023-04-19T20:49:00;100948.44;;;13.28;24.64
4570;BME280;2297;51.442;6.996;2023-04-19T20:51:27;100947.72;;;13.20;24.77
4570;BME280;2297;51.442;6.996;2023-04-19T20:53:55;100947.66;;;13.23;24.82
4570;BME280;2297;51.442;6.996;2023-04-19T20:56:21;100948.69;;;13.16;24.88